Time;durP1;ratioP1;P1;durP2;ratioP2;P2;SDS_P1;SDS_P2;PMS_P1;PMS_P2;Temp;Humidity;BMP_temperature;BMP_pressure;BME280_temperature;BME280_humidity;BME280_pressure;Samples;Min_cycle;Max_cycle;Signal;HPM_P1;HPM_P2
2023/03/22 00:01:45;;;;;;;42.05;2.88;;;;;;;21.45;59.41;99164.41;7312062;19;130111;-42
2023/03/22 00:04:10;;;;;;;55.08;3.28;;;;;;;21.43;59.79;99155.94;7311578;19;129638;-42
2023/03/22 00:06:36;;;;;;;41.72;2.60;;;;;;;21.45;60.00;99155.78;7312248;19;128997;-41
2023/03/22 00:09:01;;;;;;;36.47;2.45;;;;;;;21.50;59.48;99156.16;7313536;19;129243;-41
2023/03/22 00:11:26;;;;;;;53.92;3.40;;;;;;;21.48;60.49;99153.69;7311329;19;129396;-42
2023/03/22 00:13:52;;;;;;;55.50;3.07;;;;;;;21.48;59.78;99150.25;7313013;19;129197;-40
2023/03/22 00:16:19;;;;;;;35.38;2.25;;;;;;;21.48;60.02;99153.69;7312822;19;129446;-42
2023/03/22 00:18:44;;;;;;;39.50;2.50;;;;;;;21.52;59.24;99152.41;7313463;19;128962;-42
2023/03/22 00:21:12;;;;;;;61.72;3.90;;;;;;;21.54;60.30;99154.88;7312004;19;131519;-42
2023/03/22 00:23:38;;;;;;;54.63;2.95;;;;;;;21.51;59.29;99158.63;7312622;19;129912;-42
2023/03/22 00:26:03;;;;;;;34.75;2.22;;;;;;;21.51;60.35;99142.91;7312044;19;129088;-40
2023/03/22 00:28:28;;;;;;;8.00;0.88;;;;;;;21.55;60.65;99143.44;7312456;19;130213;-41
2023/03/22 00:30:57;;;;;;;43.77;2.57;;;;;;;21.56;60.43;99145.06;7313380;19;129476;-41
2023/03/22 00:33:22;;;;;;;71.03;4.07;;;;;;;21.55;59.83;99136.41;7311982;19;130405;-41
2023/03/22 00:35:53;;;;;;;16.65;1.50;;;;;;;21.56;61.14;99130.22;7313036;19;129277;-41
2023/03/22 00:38:19;;;;;;;40.42;2.50;;;;;;;21.58;60.43;99133.50;7313103;19;129078;-40
2023/03/22 00:40:44;;;;;;;25.20;1.87;;;;;;;21.63;60.75;99131.25;7313137;19;129541;-40
2023/03/22 00:43:10;;;;;;;50.30;2.97;;;;;;;21.65;61.16;99121.44;7307512;19;129063;-41
2023/03/22 00:45:36;;;;;;;33.80;2.03;;;;;;;21.64;60.21;99127.66;7313339;19;129239;-42
2023/03/22 00:48:02;;;;;;;24.45;1.75;;;;;;;21.66;60.48;99110.03;7309435;19;129361;-41
2023/03/22 00:50:28;;;;;;;54.05;3.35;;;;;;;21.65;59.90;99107.56;7312760;19;129164;-41
2023/03/22 00:52:53;;;;;;;45.08;2.90;;;;;;;21.55;60.85;99091.94;7309270;19;131080;-42
2023/03/22 00:55:18;;;;;;;47.70;2.88;;;;;;;21.68;60.54;99096.78;7312461;19;128889;-41
2023/03/22 00:57:44;;;;;;;33.37;2.27;;;;;;;21.66;60.33;99110.03;7307471;19;128993;-41
2023/03/22 01:00:12;;;;;;;51.40;3.00;;;;;;;21.68;60.37;99102.81;7312170;19;129191;-42
2023/03/22 01:02:37;;;;;;;65.47;3.78;;;;;;;21.66;60.99;99104.78;7305863;19;129673;-41
2023/03/22 01:05:05;;;;;;;51.55;3.13;;;;;;;21.67;60.87;99113.44;7311051;19;129164;-42
2023/03/22 01:07:31;;;;;;;51.65;3.05;;;;;;;21.68;60.90;99107.25;7308815;19;129210;-40
2023/03/22 01:09:56;;;;;;;64.07;3.65;;;;;;;21.66;60.62;99089.09;7311464;19;129169;-41
2023/03/22 01:12:22;;;;;;;83.43;4.80;;;;;;;21.56;60.37;99092.75;7311024;19;129760;-41
2023/03/22 01:14:47;;;;;;;33.70;2.07;;;;;;;21.65;60.83;99108.38;7311705;19;129055;-42
2023/03/22 01:17:13;;;;;;;35.08;2.35;;;;;;;21.69;60.82;99103.66;7309588;19;130640;-42
2023/03/22 01:19:38;;;;;;;44.67;2.50;;;;;;;21.69;60.84;99099.25;7311336;19;129126;-42
2023/03/22 01:22:05;;;;;;;54.90;3.30;;;;;;;21.71;61.32;99107.78;7311586;19;129165;-40
2023/03/22 01:24:30;;;;;;;68.72;4.15;;;;;;;21.71;60.60;99105.16;7310127;19;131403;-42
2023/03/22 01:26:56;;;;;;;30.40;1.85;;;;;;;21.69;60.56;99099.25;7310513;19;130246;-42
2023/03/22 01:29:22;;;;;;;50.72;3.00;;;;;;;21.70;60.32;99094.84;7310400;19;129561;-41
2023/03/22 01:31:47;;;;;;;54.53;3.00;;;;;;;21.68;60.72;99083.72;7312025;19;129344;-41
2023/03/22 01:34:12;;;;;;;26.83;1.87;;;;;;;21.59;60.94;99061.91;7308873;19;129103;-41
2023/03/22 01:36:38;;;;;;;44.97;2.75;;;;;;;21.70;60.88;99085.19;7310214;19;128926;-41
2023/03/22 01:39:03;;;;;;;91.05;5.30;;;;;;;21.72;60.72;99085.88;7311434;19;129506;-41
2023/03/22 01:41:33;;;;;;;23.88;1.95;;;;;;;21.70;60.84;99085.19;7311966;19;130725;-41
2023/03/22 01:44:31;;;;;;;39.97;2.50;;;;;;;21.72;61.42;99083.25;7311007;19;131316;-42
2023/03/22 01:46:57;;;;;;;25.07;1.80;;;;;;;21.71;60.45;99084.22;7307122;19;131470;-42
2023/03/22 01:49:31;;;;;;;36.30;2.35;;;;;;;21.70;61.31;99079.16;7310067;19;130877;-41
2023/03/22 01:52:09;;;;;;;48.75;2.97;;;;;;;21.68;60.73;99070.63;7310360;19;131307;-42
2023/03/22 01:54:45;;;;;;;42.95;2.60;;;;;;;21.58;61.19;99055.03;7314221;19;129188;-42
2023/03/22 01:57:11;;;;;;;65.68;3.67;;;;;;;21.69;60.31;99083.56;7313314;19;130602;-41
2023/03/22 01:59:38;;;;;;;21.65;1.80;;;;;;;21.70;61.13;99072.09;7314859;19;129417;-41
2023/03/22 02:02:04;;;;;;;31.55;2.60;;;;;;;21.70;60.73;99068.69;7315340;19;129205;-41
2023/03/22 02:04:33;;;;;;;91.80;5.63;;;;;;;21.70;60.93;99073.91;7315505;19;129289;-42
2023/03/22 02:07:08;;;;;;;78.38;4.28;;;;;;;21.70;61.35;99064.25;7314115;19;129164;-41
2023/03/22 02:09:40;;;;;;;38.90;2.30;;;;;;;21.70;60.94;99066.88;7317447;19;130176;-41
2023/03/22 02:12:17;;;;;;;41.75;2.50;;;;;;;21.72;61.07;99062.31;7315068;19;130123;-42
2023/03/22 02:15:16;;;;;;;46.15;2.92;;;;;;;21.73;60.64;99066.56;7315376;19;130421;-41
2023/03/22 02:18:06;;;;;;;38.22;2.30;;;;;;;21.65;61.17;99055.25;7314478;19;129437;-41
2023/03/22 02:20:37;;;;;;;29.92;1.80;;;;;;;21.72;60.67;99067.53;7318091;19;129450;-41
2023/03/22 02:23:08;;;;;;;41.20;2.42;;;;;;;21.75;60.42;99067.22;7314588;19;130629;-42
2023/03/22 02:25:51;;;;;;;41.55;2.55;;;;;;;21.72;60.49;99062.31;7315165;19;129174;-41
2023/03/22 02:28:28;;;;;;;18.02;1.42;;;;;;;21.73;60.78;99068.38;7313196;19;129948;-42
2023/03/22 02:31:12;;;;;;;49.08;2.88;;;;;;;21.63;60.17;99050.16;7317060;19;129520;-41
2023/03/22 02:34:19;;;;;;;49.63;2.78;;;;;;;21.74;61.07;99063.00;7316040;19;129256;-41
2023/03/22 02:36:47;;;;;;;36.80;2.17;;;;;;;21.74;60.72;99070.00;7314773;19;129510;-42
2023/03/22 02:39:35;;;;;;;61.90;3.30;;;;;;;21.72;60.82;99057.09;7315016;19;129063;-42
2023/03/22 02:42:36;;;;;;;51.17;3.00;;;;;;;21.77;61.25;99061.88;7315787;19;130843;-42
2023/03/22 02:45:11;;;;;;;41.90;2.65;;;;;;;21.74;60.50;99070.84;7309883;19;129305;-41
2023/03/22 02:47:48;;;;;;;25.45;1.73;;;;;;;21.74;60.72;99065.59;7311610;19;129125;-41
2023/03/22 02:50:21;;;;;;;83.60;4.47;;;;;;;21.74;61.03;99059.53;7313114;19;129383;-42
2023/03/22 02:52:49;;;;;;;98.75;5.65;;;;;;;21.76;60.18;99054.97;7313977;19;129130;-42
2023/03/22 02:55:36;;;;;;;61.78;3.47;;;;;;;21.76;60.62;99062.84;7315161;19;129231;-42
2023/03/22 02:58:22;;;;;;;22.75;1.80;;;;;;;21.76;60.46;99054.97;7315525;19;130782;-41
2023/03/22 03:00:53;;;;;;;37.88;2.42;;;;;;;21.73;60.60;99043.00;7316191;19;130749;-42
2023/03/22 03:03:19;;;;;;;29.27;2.17;;;;;;;21.63;59.95;99037.09;7314160;19;129168;-42
2023/03/22 03:05:54;;;;;;;43.42;2.65;;;;;;;21.74;60.97;99044.66;7313182;19;130061;-41
2023/03/22 03:08:22;;;;;;;54.75;3.10;;;;;;;21.64;60.04;99033.47;7311518;19;129223;-41
2023/03/22 03:10:49;;;;;;;40.30;2.67;;;;;;;21.73;60.30;99052.69;7315213;19;129163;-42
2023/03/22 03:13:16;;;;;;;30.80;1.98;;;;;;;21.71;59.94;99065.91;7313845;19;129632;-41
2023/03/22 03:15:45;;;;;;;;;;;;;;;21.69;60.31;99036.47;7314554;19;129419;-41
2023/03/22 03:18:26;;;;;;;60.72;3.55;;;;;;;21.75;60.79;99050.72;7314424;19;129291;-42
2023/03/22 03:21:15;;;;;;;51.13;2.97;;;;;;;21.72;61.00;99051.84;7315258;19;129224;-40
2023/03/22 03:23:41;;;;;;;54.78;3.33;;;;;;;21.72;60.00;99051.84;7314284;19;129080;-42
2023/03/22 03:26:16;;;;;;;54.50;3.03;;;;;;;21.69;60.46;99041.69;7313452;19;129284;-41
2023/03/22 03:28:45;;;;;;;35.08;2.10;;;;;;;21.70;60.75;99050.38;7313923;19;129119;-42
2023/03/22 03:31:10;;;;;;;47.38;2.95;;;;;;;21.71;60.22;99052.00;7313541;19;130194;-42
2023/03/22 03:33:44;;;;;;;55.00;3.22;;;;;;;21.70;60.15;99056.41;7314525;19;130960;-41
2023/03/22 03:36:13;;;;;;;62.33;3.95;;;;;;;21.60;60.55;99041.81;7312313;19;129635;-41
2023/03/22 03:38:42;;;;;;;30.65;1.90;;;;;;;21.69;60.44;99053.94;7314515;19;129462;-41
2023/03/22 03:41:12;;;;;;;41.40;2.47;;;;;;;21.69;60.39;99049.53;7313182;19;129267;-41
2023/03/22 03:43:39;;;;;;;36.63;2.15;;;;;;;21.68;60.13;99049.69;7313977;19;129707;-41
2023/03/22 03:46:07;;;;;;;63.70;3.55;;;;;;;21.69;59.38;99057.38;7312910;19;129197;-40
2023/03/22 03:48:36;;;;;;;11.45;1.05;;;;;;;21.69;60.52;99051.31;7311608;19;129697;-42
2023/03/22 03:51:02;;;;;;;33.70;2.20;;;;;;;21.70;60.18;99060.84;7314749;19;129657;-41
2023/03/22 03:53:29;;;;;;;27.30;1.70;;;;;;;21.69;60.18;99054.78;7313945;19;129086;-42
2023/03/22 03:55:54;;;;;;;50.28;2.85;;;;;;;21.68;60.11;99055.72;7313018;19;129410;-40
2023/03/22 03:58:20;;;;;;;97.97;5.27;;;;;;;21.66;60.49;99051.63;7312195;19;129019;-40
2023/03/22 04:00:46;;;;;;;28.20;1.83;;;;;;;21.66;59.97;99052.47;7314014;19;129003;-42
2023/03/22 04:03:12;;;;;;;45.40;2.83;;;;;;;21.54;59.71;99032.75;7313256;19;129285;-40
2023/03/22 04:05:37;;;;;;;54.20;2.77;;;;;;;21.65;59.83;99045.56;7312041;19;129087;-42
2023/03/22 04:08:03;;;;;;;37.17;2.30;;;;;;;21.58;60.23;99033.28;7311273;19;129674;-41
2023/03/22 04:10:29;;;;;;;35.13;2.20;;;;;;;21.68;59.67;99049.69;7312571;19;131405;-42
2023/03/22 04:12:54;;;;;;;37.78;2.35;;;;;;;21.66;59.98;99049.03;7310083;19;128957;-39
2023/03/22 04:15:20;;;;;;;64.93;3.92;;;;;;;21.63;60.14;99050.16;7311723;19;129551;-41
2023/03/22 04:17:45;;;;;;;36.40;2.20;;;;;;;21.64;59.85;99054.41;7308153;19;128950;-41
2023/03/22 04:20:12;;;;;;;36.28;2.22;;;;;;;21.63;60.42;99050.16;7312867;19;129396;-42
2023/03/22 04:22:39;;;;;;;45.92;2.65;;;;;;;21.62;60.27;99051.13;7310773;19;130713;-42
2023/03/22 04:25:10;;;;;;;21.08;1.52;;;;;;;21.54;59.91;99042.38;7311991;19;129749;-40
2023/03/22 04:27:36;;;;;;;45.78;2.88;;;;;;;21.61;59.50;99049.50;7310328;19;130664;-42
2023/03/22 04:30:03;;;;;;;41.45;2.55;;;;;;;21.62;60.66;99045.88;7313977;19;129913;-41
2023/03/22 04:32:29;;;;;;;61.80;3.53;;;;;;;21.62;60.58;99050.28;7311072;19;130181;-42
2023/03/22 04:34:54;;;;;;;52.38;2.75;;;;;;;21.51;58.33;99048.75;7312589;19;129669;-42
2023/03/22 04:37:23;;;;;;;41.67;2.42;;;;;;;21.28;60.53;99026.69;7311087;19;128851;-41
2023/03/22 04:39:48;;;;;;;30.50;1.95;;;;;;;21.32;59.94;99033.22;7313153;19;129728;-42
2023/03/22 04:42:14;;;;;;;71.75;4.15;;;;;;;21.29;59.05;99023.09;7312321;19;129088;-42
2023/03/22 04:44:39;;;;;;;51.65;2.70;;;;;;;21.65;58.46;99050.81;7308508;19;130712;-41
2023/03/22 04:47:05;;;;;;;33.85;2.03;;;;;;;21.95;57.33;99053.00;7310687;19;128890;-41
2023/03/22 04:49:30;;;;;;;48.80;2.73;;;;;;;22.15;55.93;99040.50;7313010;19;129932;-42
2023/03/22 04:51:56;;;;;;;27.47;1.80;;;;;;;22.37;55.96;99039.13;7310893;19;129244;-40
2023/03/22 04:54:23;;;;;;;103.97;5.78;;;;;;;22.50;55.31;99039.50;7310375;19;129630;-40
2023/03/22 04:56:49;;;;;;;49.53;2.72;;;;;;;22.65;54.69;99043.19;7310584;19;129008;-41
2023/03/22 04:59:18;;;;;;;39.83;2.37;;;;;;;22.78;54.39;99047.00;7305213;19;131258;-40
2023/03/22 05:01:48;;;;;;;36.65;1.98;;;;;;;22.93;53.83;99044.56;7307161;19;132150;-41
2023/03/22 05:04:14;;;;;;;58.50;3.13;;;;;;;23.02;53.53;99039.16;7307693;19;130319;-41
2023/03/22 05:06:39;;;;;;;51.97;2.78;;;;;;;23.15;53.87;99039.50;7302689;19;130232;-41
2023/03/22 05:09:05;;;;;;;55.72;3.22;;;;;;;23.21;53.50;99038.03;7310402;19;129790;-42
2023/03/22 05:11:30;;;;;;;57.53;3.30;;;;;;;23.33;53.38;99035.94;7309749;19;131148;-40
2023/03/22 05:13:56;;;;;;;93.75;4.88;;;;;;;23.44;52.69;99036.41;7310552;19;129208;-40
2023/03/22 05:16:22;;;;;;;35.10;2.00;;;;;;;23.53;52.88;99032.81;7310360;19;129298;-42
2023/03/22 05:18:48;;;;;;;33.43;2.07;;;;;;;23.55;52.07;99030.03;7312620;19;129458;-42
2023/03/22 05:21:16;;;;;;;49.07;2.67;;;;;;;23.68;52.21;99030.34;7306388;19;131062;-42
2023/03/22 05:23:42;;;;;;;101.57;5.45;;;;;;;23.61;52.42;99022.31;7309060;19;129552;-41
2023/03/22 05:26:09;;;;;;;77.32;4.28;;;;;;;23.86;51.32;99039.66;7303034;19;130589;-41
2023/03/22 05:28:35;;;;;;;49.63;2.75;;;;;;;23.90;51.20;99035.69;7307125;19;129948;-41
2023/03/22 05:31:02;;;;;;;89.72;5.07;;;;;;;23.98;50.94;99037.53;7314083;19;129077;-41
2023/03/22 05:33:28;;;;;;;113.40;6.03;;;;;;;24.01;51.57;99037.19;7296796;19;131411;-40
2023/03/22 05:35:54;;;;;;;115.03;6.72;;;;;;;24.04;51.24;99044.72;7297609;19;131314;-42
2023/03/22 05:38:23;;;;;;;36.70;2.15;;;;;;;23.96;51.30;99045.53;7313747;19;129039;-42
2023/03/22 05:40:49;;;;;;;42.50;2.45;;;;;;;23.87;51.87;99041.28;7312695;19;130794;-42
2023/03/22 05:43:14;;;;;;;50.67;2.93;;;;;;;23.74;51.46;99033.13;7316491;19;129922;-41
2023/03/22 05:45:40;;;;;;;37.93;2.07;;;;;;;23.63;52.12;99038.72;7315425;19;131175;-41
2023/03/22 05:48:06;;;;;;;75.87;4.00;;;;;;;23.51;52.84;99034.78;7316662;19;129633;-41
2023/03/22 05:50:32;;;;;;;30.40;2.00;;;;;;;23.41;52.90;99039.38;7316022;19;131165;-42
2023/03/22 05:52:58;;;;;;;53.75;2.83;;;;;;;23.24;53.41;99033.28;7316475;19;129887;-40
2023/03/22 05:55:23;;;;;;;59.05;3.60;;;;;;;23.07;53.78;99020.34;7312165;19;129255;-42
2023/03/22 05:57:50;;;;;;;44.00;2.53;;;;;;;23.00;54.16;99037.69;7311220;19;130232;-41
2023/03/22 06:00:17;;;;;;;40.88;2.40;;;;;;;22.87;54.41;99029.47;7311746;19;131168;-41
2023/03/22 06:02:43;;;;;;;;;;;;;;;22.75;54.92;99033.38;7317880;19;130100;-41
2023/03/22 06:05:12;;;;;;;30.45;1.92;;;;;;;22.63;55.17;99032.03;7316737;19;129208;-41
2023/03/22 06:07:39;;;;;;;27.13;1.67;;;;;;;22.52;55.27;99021.81;7310424;19;129447;-42
2023/03/22 06:10:06;;;;;;;55.03;3.20;;;;;;;22.44;55.20;99034.91;7313229;19;129538;-40
2023/03/22 06:12:32;;;;;;;45.83;2.58;;;;;;;22.32;56.24;99038.78;7313450;19;131162;-41
2023/03/22 06:14:58;;;;;;;64.57;3.73;;;;;;;22.25;56.24;99049.06;7315877;19;129109;-42
2023/03/22 06:17:24;;;;;;;33.03;1.95;;;;;;;22.14;56.44;99022.34;7310852;19;129617;-42
2023/03/22 06:19:50;;;;;;;43.30;2.58;;;;;;;22.05;56.92;99031.94;7314488;19;129083;-40
2023/03/22 06:22:16;;;;;;;44.97;2.50;;;;;;;22.10;56.81;99039.34;7315701;19;129962;-41
2023/03/22 06:24:41;;;;;;;42.53;2.30;;;;;;;22.15;56.68;99027.41;7311605;19;129474;-42
2023/03/22 06:27:08;;;;;;;35.90;2.17;;;;;;;22.22;56.12;99019.75;7311875;19;129518;-41
2023/03/22 06:29:34;;;;;;;69.97;3.90;;;;;;;22.35;56.16;99022.75;7310434;19;130366;-41
2023/03/22 06:31:59;;;;;;;99.10;5.43;;;;;;;22.47;55.67;99021.47;7313360;19;129226;-41
2023/03/22 06:34:25;;;;;;;73.55;4.47;;;;;;;22.62;55.23;99030.41;7315352;19;129642;-42
2023/03/22 06:36:52;;;;;;;15.13;1.25;;;;;;;22.78;54.79;99018.16;7310253;19;129196;-41
2023/03/22 06:39:17;;;;;;;55.22;3.10;;;;;;;22.92;54.46;99027.19;7313733;19;130105;-41
2023/03/22 06:41:42;;;;;;;31.23;1.90;;;;;;;22.97;53.77;99017.06;7308054;19;130098;-40
2023/03/22 06:44:07;;;;;;;42.90;2.58;;;;;;;23.16;53.74;99029.84;7315867;19;129132;-42
2023/03/22 06:46:33;;;;;;;42.67;2.30;;;;;;;23.11;53.78;99032.94;7310925;19;130326;-42
2023/03/22 06:48:58;;;;;;;71.88;3.70;;;;;;;23.11;53.81;99026.88;7312141;19;130166;-42
2023/03/22 06:51:24;;;;;;;45.03;2.60;;;;;;;23.03;54.12;99008.53;7311509;19;131189;-41
2023/03/22 06:53:49;;;;;;;59.40;3.27;;;;;;;23.00;54.37;99027.22;7313003;19;130014;-42
2023/03/22 06:56:14;;;;;;;39.47;2.33;;;;;;;22.92;54.47;99028.00;7312058;19;129739;-41
2023/03/22 06:58:40;;;;;;;54.33;2.80;;;;;;;22.82;54.64;99026.53;7313250;19;129280;-40
2023/03/22 07:01:06;;;;;;;37.33;2.13;;;;;;;22.75;54.86;99028.13;7314281;19;129267;-41
2023/03/22 07:03:31;;;;;;;57.50;3.33;;;;;;;22.63;54.98;99026.78;7314293;19;129665;-42
2023/03/22 07:06:04;;;;;;;53.10;2.93;;;;;;;22.54;55.28;99025.97;7311753;19;129182;-41
2023/03/22 07:08:30;;;;;;;62.08;3.47;;;;;;;22.44;55.59;99035.72;7311445;19;129550;-42
2023/03/22 07:10:55;;;;;;;41.93;2.40;;;;;;;22.37;55.80;99028.66;7314358;19;129315;-42
2023/03/22 07:13:20;;;;;;;32.63;1.88;;;;;;;22.29;56.39;99029.47;7313632;19;128964;-41
2023/03/22 07:15:46;;;;;;;34.07;1.90;;;;;;;22.22;56.35;99024.97;7312885;19;129601;-41
2023/03/22 07:18:11;;;;;;;55.20;2.90;;;;;;;22.06;56.18;99023.13;7314221;19;129737;-41
2023/03/22 07:20:39;;;;;;;54.85;3.13;;;;;;;22.07;57.04;99031.78;7312493;19;129141;-42
2023/03/22 07:23:04;;;;;;;39.17;2.30;;;;;;;21.90;56.84;99023.84;7313591;19;129351;-41
2023/03/22 07:25:30;;;;;;;32.17;2.00;;;;;;;21.94;57.15;99027.00;7311334;19;129832;-42
2023/03/22 07:27:55;;;;;;;58.80;3.13;;;;;;;21.96;57.30;99032.91;7311748;19;129433;-41
2023/03/22 07:30:20;;;;;;;55.60;3.30;;;;;;;22.03;56.67;99027.84;7310369;19;131549;-41
2023/03/22 07:32:46;;;;;;;33.42;1.92;;;;;;;22.04;56.79;99008.53;7312653;19;129429;-41
2023/03/22 07:35:11;;;;;;;64.43;3.70;;;;;;;22.27;56.39;99027.97;7310989;19;129360;-41
2023/03/22 07:37:36;;;;;;;63.05;3.42;;;;;;;22.43;55.94;99020.97;7309786;19;129389;-42
2023/03/22 07:40:03;;;;;;;39.67;2.47;;;;;;;22.55;55.91;99029.41;7313656;19;129493;-41
2023/03/22 07:42:30;;;;;;;32.03;2.00;;;;;;;22.69;55.02;99020.94;7311416;19;129402;-42
2023/03/22 07:44:55;;;;;;;51.38;2.85;;;;;;;22.88;54.52;99023.25;7309733;19;129225;-41
2023/03/22 07:47:21;;;;;;;36.47;2.10;;;;;;;23.00;54.04;99024.59;7311149;19;129922;-41
2023/03/22 07:49:46;;;;;;;42.73;2.47;;;;;;;23.08;54.19;99019.34;7312909;19;130622;-41
2023/03/22 07:52:11;;;;;;;43.13;2.73;;;;;;;23.04;53.78;99024.09;7310055;19;129002;-40
2023/03/22 07:54:37;;;;;;;113.60;5.93;;;;;;;23.02;53.92;99020.00;7308574;19;129168;-42
2023/03/22 07:57:03;;;;;;;67.63;3.63;;;;;;;22.99;53.69;99022.97;7309222;19;128997;-41
2023/03/22 07:59:28;;;;;;;37.17;2.20;;;;;;;22.92;54.46;99027.19;7311002;19;129346;-41
2023/03/22 08:01:53;;;;;;;56.58;3.20;;;;;;;22.84;54.79;99016.72;7309026;19;129963;-42
2023/03/22 08:04:21;;;;;;;140.52;8.13;;;;;;;22.77;54.59;99019.16;7309967;19;129089;-42
2023/03/22 08:06:47;;;;;;;39.60;2.35;;;;;;;22.66;55.40;99018.63;7309831;19;130720;-40
2023/03/22 08:09:13;;;;;;;54.42;3.05;;;;;;;22.56;55.86;99026.63;7308624;19;129764;-42
2023/03/22 08:11:38;;;;;;;25.92;1.58;;;;;;;22.49;55.90;99020.38;7312425;19;128875;-41
2023/03/22 08:14:03;;;;;;;78.38;4.05;;;;;;;22.31;56.12;99010.97;7312002;19;128932;-40
2023/03/22 08:16:29;;;;;;;44.60;2.60;;;;;;;22.34;56.02;99028.97;7310679;19;130021;-41
2023/03/22 08:18:54;;;;;;;54.13;3.10;;;;;;;22.24;56.48;99026.47;7312957;19;129247;-40
2023/03/22 08:21:20;;;;;;;55.92;3.28;;;;;;;22.17;56.77;99030.69;7311374;19;129724;-42
2023/03/22 08:23:46;;;;;;;65.67;3.33;;;;;;;22.02;57.12;99015.72;7312132;19;129506;-42
2023/03/22 08:26:11;;;;;;;37.37;2.20;;;;;;;22.02;56.56;99023.56;7311194;19;129188;-42
2023/03/22 08:28:37;;;;;;;47.73;2.63;;;;;;;22.00;56.90;99022.94;7310650;19;130485;-42
2023/03/22 08:31:12;;;;;;;40.40;2.33;;;;;;;21.88;57.01;99019.78;7312032;19;129164;-42
2023/03/22 08:33:38;;;;;;;84.07;4.25;;;;;;;21.88;57.65;99023.19;7310586;19;130850;-42
2023/03/22 08:36:09;;;;;;;17.00;1.15;;;;;;;21.81;57.42;99019.56;7309930;19;129012;-41
2023/03/22 08:38:34;;;;;;;43.90;2.83;;;;;;;21.83;57.90;99019.41;7311179;19;130630;-42
2023/03/22 08:40:59;;;;;;;42.80;2.55;;;;;;;21.87;57.63;99013.69;7311086;19;129085;-41
2023/03/22 08:43:25;;;;;;;60.83;3.22;;;;;;;21.98;57.75;99020.47;7309761;19;129685;-41
2023/03/22 08:45:50;;;;;;;21.23;1.42;;;;;;;22.15;57.12;99016.16;7310066;19;129069;-41
2023/03/22 08:48:15;;;;;;;46.30;2.70;;;;;;;22.29;56.56;99018.97;7309403;19;129303;-42
2023/03/22 08:50:41;;;;;;;45.13;2.65;;;;;;;22.41;56.61;99014.28;7308778;19;130228;-41
2023/03/22 08:53:06;;;;;;;66.60;3.53;;;;;;;22.61;55.97;99019.09;7311248;19;130369;-41
2023/03/22 08:55:34;;;;;;;69.53;3.63;;;;;;;22.72;54.81;99007.50;7310602;19;129697;-40
2023/03/22 08:58:00;;;;;;;36.47;2.28;;;;;;;22.93;54.52;99015.72;7310646;19;129840;-42
2023/03/22 09:00:26;;;;;;;58.80;3.00;;;;;;;22.92;54.45;99011.47;7309600;19;129783;-42
2023/03/22 09:02:51;;;;;;;77.22;4.20;;;;;;;22.93;54.30;99013.94;7309183;19;129484;-41
2023/03/22 09:05:17;;;;;;;33.13;1.80;;;;;;;22.90;54.77;99018.66;7310453;19;129130;-42
2023/03/22 09:07:43;;;;;;;40.57;2.20;;;;;;;22.87;54.52;99011.13;7307844;19;129724;-41
2023/03/22 09:10:09;;;;;;;58.93;3.50;;;;;;;22.71;55.35;99004.06;7308145;19;129408;-41
2023/03/22 09:12:35;;;;;;;57.50;3.03;;;;;;;22.69;55.28;99007.84;7309690;19;129399;-41
2023/03/22 09:15:01;;;;;;;40.60;2.33;;;;;;;22.60;55.01;99007.00;7309300;19;129678;-41
2023/03/22 09:17:26;;;;;;;52.93;3.03;;;;;;;22.57;55.91;99011.72;7307440;19;129857;-41
2023/03/22 09:19:51;;;;;;;47.17;2.73;;;;;;;22.45;55.79;99002.47;7308060;19;129416;-40
2023/03/22 09:22:17;;;;;;;39.85;2.20;;;;;;;22.36;56.62;99000.84;7309360;19;129410;-40
2023/03/22 09:24:42;;;;;;;55.33;2.97;;;;;;;22.22;56.20;98990.94;7309338;19;129671;-40
2023/03/22 09:27:08;;;;;;;25.00;1.70;;;;;;;22.23;56.46;98995.22;7308200;19;129530;-41
2023/03/22 09:29:33;;;;;;;53.63;2.83;;;;;;;22.16;56.74;98991.59;7309535;19;129072;-40
2023/03/22 09:31:58;;;;;;;76.20;4.07;;;;;;;22.09;56.97;98990.56;7308862;19;128925;-40
2023/03/22 09:34:24;;;;;;;98.00;6.30;;;;;;;22.03;56.97;98980.75;7308986;19;129543;-40
2023/03/22 09:36:51;;;;;;;39.53;2.17;;;;;;;21.93;57.14;98981.66;7308004;19;129859;-41
2023/03/22 09:39:17;;;;;;;66.35;3.63;;;;;;;21.88;57.28;98988.38;7309568;19;129582;-41
2023/03/22 09:41:48;;;;;;;27.58;1.63;;;;;;;21.84;57.41;98977.38;7308515;19;128928;-40
2023/03/22 09:44:26;;;;;;;56.25;3.35;;;;;;;21.71;58.33;98956.03;7308129;19;129502;-40
2023/03/22 09:46:53;;;;;;;43.30;2.38;;;;;;;21.81;58.29;98972.47;7305292;19;130410;-40
2023/03/22 09:49:23;;;;;;;46.13;2.65;;;;;;;21.77;58.62;98965.91;7306355;19;131907;-41
2023/03/22 09:51:51;;;;;;;56.70;2.90;;;;;;;21.67;57.98;98959.91;7308420;19;129072;-41
2023/03/22 09:54:20;;;;;;;95.40;5.68;;;;;;;21.82;58.57;98968.88;7308582;19;129969;-41
2023/03/22 09:56:54;;;;;;;36.58;2.08;;;;;;;21.84;58.12;98961.69;7306678;19;129551;-41
2023/03/22 09:59:55;;;;;;;56.95;3.22;;;;;;;21.97;57.25;98961.25;7307617;19;130821;-41
2023/03/22 10:02:58;;;;;;;33.53;2.03;;;;;;;22.22;57.35;98962.16;7309757;19;129164;-41
2023/03/22 10:05:29;;;;;;;44.60;2.42;;;;;;;22.43;55.98;98955.50;7306134;19;129399;-40
2023/03/22 10:08:04;;;;;;;47.40;2.63;;;;;;;22.58;56.21;98945.22;7308709;19;129305;-41
2023/03/22 10:10:29;;;;;;;73.43;4.35;;;;;;;22.67;55.59;98944.28;7305182;19;129401;-42
2023/03/22 10:13:01;;;;;;;47.65;2.67;;;;;;;22.70;55.25;98946.56;7306569;19;129214;-41
2023/03/22 10:15:40;;;;;;;59.83;3.10;;;;;;;22.68;55.40;98941.50;7310032;19;129602;-42
2023/03/22 10:18:12;;;;;;;52.88;2.88;;;;;;;22.58;55.30;98929.50;7315527;19;129300;-42
2023/03/22 10:20:43;;;;;;;43.17;2.53;;;;;;;22.59;55.26;98942.44;7313018;19;129969;-41
2023/03/22 10:23:17;;;;;;;43.60;2.50;;;;;;;22.56;55.43;98944.59;7315204;19;129563;-40
2023/03/22 10:25:42;;;;;;;42.58;2.15;;;;;;;22.49;55.86;98930.47;7313262;19;129729;-40
2023/03/22 10:28:34;;;;;;;51.07;2.83;;;;;;;22.33;56.11;98926.00;7313772;19;129556;-42
2023/03/22 10:31:00;;;;;;;73.45;4.00;;;;;;;22.33;56.29;98933.06;7312588;19;128943;-42
2023/03/22 10:33:37;;;;;;;80.55;4.50;;;;;;;22.25;56.43;98925.16;7313521;19;128998;-42
2023/03/22 10:36:03;;;;;;;;;;;;;;;22.15;56.87;98916.66;7312053;19;130290;-42
2023/03/22 10:38:30;;;;;;;37.90;2.10;;;;;;;22.11;56.73;98925.78;7314166;19;129368;-42
2023/03/22 10:40:57;;;;;;;61.65;3.53;;;;;;;22.04;56.79;98923.00;7314009;19;129358;-41
2023/03/22 10:43:33;;;;;;;62.97;3.30;;;;;;;21.93;57.12;98903.16;7314140;19;129531;-41
2023/03/22 10:46:01;;;;;;;64.57;3.60;;;;;;;21.92;57.75;98900.69;7311733;19;129597;-41
2023/03/22 10:48:34;;;;;;;39.45;2.17;;;;;;;21.77;57.97;98887.41;7313729;19;129174;-41
2023/03/22 10:51:00;;;;;;;48.55;2.78;;;;;;;21.82;57.83;98895.59;7312978;19;129152;-40
2023/03/22 10:53:39;;;;;;;46.40;2.65;;;;;;;21.77;57.95;98907.50;7313682;19;129621;-42
2023/03/22 10:56:10;;;;;;;66.28;3.53;;;;;;;21.76;58.67;98901.47;7311736;19;129521;-41
2023/03/22 10:58:35;;;;;;;51.97;2.75;;;;;;;21.71;58.20;98908.94;7313913;19;129424;-40
2023/03/22 11:01:08;;;;;;;38.25;2.22;;;;;;;21.74;59.03;98903.38;7314114;19;128768;-42
2023/03/22 11:03:33;;;;;;;50.50;2.80;;;;;;;21.72;58.74;98897.47;7312809;19;128940;-40
2023/03/22 11:06:05;;;;;;;66.90;3.70;;;;;;;21.71;58.89;98908.94;7310920;19;129116;-42
2023/03/22 11:08:40;;;;;;;67.05;3.47;;;;;;;21.71;59.21;98913.34;7312185;19;129254;-42
2023/03/22 11:11:41;;;;;;;74.75;4.13;;;;;;;21.72;59.82;98905.34;7313982;19;129219;-39
2023/03/22 11:14:21;;;;;;;77.03;4.15;;;;;;;21.73;60.13;98896.50;7311374;19;130101;-42
2023/03/22 11:17:08;;;;;;;51.20;2.85;;;;;;;21.71;60.74;98890.63;7311972;19;129905;-41
2023/03/22 11:19:37;;;;;;;59.67;3.35;;;;;;;21.71;59.65;98897.66;7313606;19;129366;-41
2023/03/22 11:22:06;;;;;;;53.72;3.10;;;;;;;21.71;60.44;98879.34;7314467;19;129208;-41
2023/03/22 11:24:33;;;;;;;69.93;4.10;;;;;;;21.69;59.83;98874.25;7311628;19;129338;-41